createdAt,value
2023-08-17T00:04:46.570Z,101469.63
2023-08-17T00:14:47.955Z,101490.44
2023-08-17T00:24:49.525Z,101478.69
2023-08-17T00:34:50.972Z,101486.59
2023-08-17T00:44:52.395Z,101461.31
2023-08-17T00:54:55.190Z,101443.03
2023-08-17T01:04:56.766Z,101455.19
2023-08-17T01:15:17.086Z,101471.66
2023-08-17T01:25:18.720Z,101467.84
2023-08-17T01:35:36.312Z,101448.25
2023-08-17T01:45:37.972Z,101430.28
2023-08-17T01:55:39.748Z,101434.22
2023-08-17T02:05:46.833Z,101423.72
2023-08-17T02:15:48.599Z,101426.53
2023-08-17T02:25:50.090Z,101411.09
2023-08-17T02:35:51.960Z,101402.50
2023-08-17T02:45:53.469Z,101414.03
2023-08-17T02:55:55.083Z,101408.38
2023-08-17T03:05:56.517Z,101411.22
2023-08-17T03:15:58.006Z,101424.03
2023-08-17T03:26:00.003Z,101420.94
2023-08-17T03:36:01.815Z,101410.94
2023-08-17T03:46:05.229Z,101410.63
2023-08-17T03:56:06.726Z,101416.88
2023-08-17T04:06:11.252Z,101417.25
2023-08-17T04:16:12.752Z,101422.78
2023-08-17T04:26:14.330Z,101425.88
2023-08-17T04:36:15.841Z,101440.41
2023-08-17T04:46:17.377Z,101417.81
2023-08-17T04:56:18.966Z,101436.88
2023-08-17T05:06:20.494Z,101433.38
2023-08-17T05:16:22.026Z,101433.59
2023-08-17T05:26:23.469Z,101434.53
2023-08-17T05:36:24.991Z,101447.94
2023-08-17T05:46:26.449Z,101452.09
2023-08-17T05:56:29.141Z,101459.94
2023-08-17T06:06:30.560Z,101454.50
2023-08-17T06:16:32.151Z,101463.22
2023-08-17T06:26:33.797Z,101453.66
2023-08-17T06:36:35.643Z,101452.53
2023-08-17T06:46:37.081Z,101460.25
2023-08-17T06:56:38.564Z,101469.31
2023-08-17T07:06:42.031Z,101466.38
2023-08-17T07:16:43.489Z,101471.59
2023-08-17T07:26:45.276Z,101474.69
2023-08-17T07:36:47.095Z,101478.28
2023-08-17T07:46:48.510Z,101486.34
2023-08-17T07:56:49.907Z,101494.38
2023-08-17T08:06:51.356Z,101507.09
2023-08-17T08:16:52.882Z,101509.41
2023-08-17T08:26:55.849Z,101504.50
2023-08-17T08:36:57.420Z,101506.16
2023-08-17T08:46:59.476Z,101513.13
2023-08-17T08:57:04.955Z,101507.84
2023-08-17T09:07:07.614Z,101486.38
2023-08-17T09:17:09.483Z,101500.69
2023-08-17T09:27:14.822Z,101498.56
2023-08-17T09:37:16.353Z,101497.03
2023-08-17T09:47:24.446Z,101485.91
2023-08-17T09:57:26.584Z,101470.28
2023-08-17T10:07:34.267Z,101479.56
2023-08-17T10:17:44.882Z,101471.25
2023-08-17T10:27:46.916Z,101463.94
2023-08-17T10:37:49.184Z,101459.00
2023-08-17T10:47:50.852Z,101464.16
2023-08-17T10:57:52.618Z,101452.91
2023-08-17T11:07:54.195Z,101470.31
2023-08-17T11:17:55.817Z,101461.84
2023-08-17T11:27:57.360Z,101464.78
2023-08-17T11:37:58.950Z,101462.47
2023-08-17T11:48:00.816Z,101474.97
2023-08-17T12:08:10.823Z,101472.75
2023-08-17T12:18:12.619Z,101462.72
2023-08-17T12:28:14.208Z,101460.44
2023-08-17T12:38:15.673Z,101471.28
2023-08-17T12:48:17.322Z,101469.63
2023-08-17T12:58:18.938Z,101465.22
2023-08-17T13:08:20.556Z,101466.75
2023-08-17T13:18:22.023Z,101463.16
2023-08-17T13:28:23.627Z,101461.66
2023-08-17T13:38:26.043Z,101457.78
2023-08-17T13:48:27.508Z,101468.63
2023-08-17T13:58:29.245Z,101454.31
2023-08-17T14:08:30.966Z,101460.34
2023-08-17T14:18:32.610Z,101446.59
2023-08-17T14:28:34.321Z,101440.47
2023-08-17T14:38:36.975Z,101439.88
2023-08-17T14:48:38.560Z,101426.13
2023-08-17T14:58:40.113Z,101417.44
2023-08-17T15:08:41.656Z,101411.84
2023-08-17T15:18:43.270Z,101411.91
2023-08-17T15:28:44.734Z,101409.91
2023-08-17T15:38:46.304Z,101390.88
2023-08-17T15:48:47.864Z,101388.00
2023-08-17T15:58:50.156Z,101378.91
2023-08-17T16:08:52.845Z,101366.50
2023-08-17T16:18:54.378Z,101356.47
2023-08-17T16:28:55.939Z,101338.59
2023-08-17T16:38:57.480Z,101334.75
2023-08-17T16:48:59.009Z,101335.88
2023-08-17T16:59:02.181Z,101335.06
2023-08-17T17:09:04.264Z,101335.34
2023-08-17T17:19:05.919Z,101326.06
2023-08-17T17:29:08.179Z,101340.25
2023-08-17T17:39:09.769Z,101336.22
2023-08-17T17:49:11.352Z,101350.47
2023-08-17T17:59:13.103Z,101352.41
2023-08-17T18:09:14.539Z,101343.84
2023-08-17T18:19:19.244Z,101347.00
2023-08-17T18:29:20.919Z,101346.25
2023-08-17T18:39:23.415Z,101355.09
2023-08-17T18:49:25.155Z,101363.06
2023-08-17T18:59:26.833Z,101364.81
2023-08-17T19:09:28.434Z,101371.53
2023-08-17T19:19:30.081Z,101378.97
2023-08-17T19:29:31.748Z,101387.28
2023-08-17T19:39:33.326Z,101391.22
2023-08-17T19:49:34.848Z,101385.59
2023-08-17T19:59:36.808Z,101381.38
2023-08-17T20:09:38.485Z,101389.06
2023-08-17T20:19:40.707Z,101386.69
2023-08-17T20:29:42.341Z,101393.78
2023-08-17T20:39:43.811Z,101391.78
2023-08-17T20:49:45.362Z,101394.28
2023-08-17T20:59:46.818Z,101398.22
2023-08-17T21:09:48.446Z,101393.53
2023-08-17T21:19:50.183Z,101387.59
2023-08-17T21:29:52.028Z,101391.47
2023-08-17T21:39:57.423Z,101378.41
2023-08-17T21:49:59.031Z,101381.28
2023-08-17T22:00:00.897Z,101383.13
2023-08-17T22:10:02.442Z,101384.28
2023-08-17T22:20:04.879Z,101368.72
2023-08-17T22:30:07.160Z,101363.84
2023-08-17T22:40:09.121Z,101354.47
2023-08-17T22:50:11.465Z,101362.78
2023-08-17T23:00:13.498Z,101351.25
2023-08-17T23:10:15.112Z,101349.69
2023-08-17T23:20:16.696Z,101338.34
2023-08-17T23:30:18.225Z,101330.78
2023-08-17T23:40:20.344Z,101319.44
2023-08-17T23:50:21.924Z,101297.63
